Time;durP1;ratioP1;P1;durP2;ratioP2;P2;SDS_P1;SDS_P2;PMS_P1;PMS_P2;Temp;Humidity;BMP_temperature;BMP_pressure;BME280_temperature;BME280_humidity;BME280_pressure;Samples;Min_cycle;Max_cycle;Signal;HPM_P1;HPM_P2
2021/12/01 00:01:19;;;;;;;6.33;5.00;;;24.40;99.90;;;;;;4974352;28;20547;-70
2021/12/01 00:03:46;;;;;;;7.80;5.00;;;24.30;99.90;;;;;;4972122;28;20179;-71
2021/12/01 00:06:14;;;;;;;9.97;5.10;;;24.40;99.90;;;;;;4974716;28;20567;-70
2021/12/01 00:08:41;;;;;;;6.77;4.70;;;24.70;99.90;;;;;;4974608;28;20183;-70
2021/12/01 00:11:08;;;;;;;7.03;4.37;;;25.00;99.90;;;;;;4974755;28;20230;-70
2021/12/01 00:13:36;;;;;;;7.63;4.13;;;24.90;99.90;;;;;;4974286;28;20310;-71
2021/12/01 00:16:06;;;;;;;6.13;4.47;;;25.00;99.90;;;;;;4974408;28;20617;-73
2021/12/01 00:18:33;;;;;;;7.57;4.67;;;25.10;99.90;;;;;;4974571;28;20209;-70
2021/12/01 00:21:00;;;;;;;9.57;4.93;;;24.90;99.90;;;;;;4974542;28;20180;-72
2021/12/01 00:23:28;;;;;;;5.47;4.47;;;24.80;99.90;;;;;;4976898;28;20243;-70
2021/12/01 00:25:56;;;;;;;10.20;5.13;;;24.70;99.90;;;;;;4976060;28;20219;-72
2021/12/01 00:28:24;;;;;;;6.70;5.30;;;24.50;99.90;;;;;;4978228;28;20541;-71
2021/12/01 00:30:52;;;;;;;5.77;4.40;;;24.40;99.90;;;;;;4977617;28;20187;-70
2021/12/01 00:33:23;;;;;;;9.60;5.17;;;24.20;99.90;;;;;;4977574;28;20224;-71
2021/12/01 00:35:53;;;;;;;6.07;4.40;;;24.10;99.90;;;;;;4975923;28;20183;-70
2021/12/01 00:38:21;;;;;;;8.20;4.47;;;24.10;99.90;;;;;;4975288;28;20277;-70
2021/12/01 00:40:48;;;;;;;6.07;3.70;;;24.20;99.90;;;;;;4976861;28;20180;-71
2021/12/01 00:43:17;;;;;;;8.00;5.00;;;24.70;99.90;;;;;;4977436;28;20243;-70
2021/12/01 00:48:37;;;;;;;5.23;3.57;;;26.10;99.90;;;;;;4983658;28;20590;-70
2021/12/01 00:51:04;;;;;;;6.63;4.07;;;26.90;99.90;;;;;;4976129;28;20179;-73
2021/12/01 00:53:32;;;;;;;8.00;4.70;;;26.90;99.90;;;;;;4975520;28;20190;-70
2021/12/01 00:55:59;;;;;;;10.20;4.67;;;27.20;99.90;;;;;;4977209;28;20191;-73
2021/12/01 00:58:27;;;;;;;10.20;4.67;;;27.40;99.90;;;;;;4979785;28;20199;-70
2021/12/01 01:00:55;;;;;;;7.37;3.90;;;27.00;99.90;;;;;;4979946;28;20186;-73
2021/12/01 01:03:23;;;;;;;6.83;4.87;;;26.50;99.90;;;;;;4979306;28;20182;-71
2021/12/01 01:05:50;;;;;;;7.30;5.13;;;26.40;99.90;;;;;;4978987;28;20199;-70
2021/12/01 01:08:18;;;;;;;5.57;4.20;;;26.00;99.90;;;;;;4979199;28;20183;-69
2021/12/01 01:10:57;;;;;;;7.77;4.70;;;26.00;99.90;;;;;;4979288;28;20190;-70
2021/12/01 01:16:24;;;;;;;6.63;4.10;;;25.20;99.90;;;;;;4978705;28;20190;-71
2021/12/01 01:18:58;;;;;;;5.90;3.90;;;25.20;99.90;;;;;;4977760;28;20186;-70
2021/12/01 01:21:29;;;;;;;4.57;3.47;;;25.20;99.90;;;;;;4978726;28;20190;-71
2021/12/01 01:23:57;;;;;;;5.50;3.03;;;25.30;99.90;;;;;;4978638;28;20182;-72
2021/12/01 01:26:26;;;;;;;4.90;2.93;;;25.60;99.90;;;;;;4978369;28;20226;-72
2021/12/01 01:28:53;;;;;;;5.07;2.50;;;25.60;99.90;;;;;;4978710;28;20180;-74
2021/12/01 01:31:22;;;;;;;5.07;2.37;;;25.50;99.90;;;;;;4978880;28;20656;-71
2021/12/01 01:33:50;;;;;;;3.80;2.40;;;25.60;99.90;;;;;;4979162;28;20177;-73
2021/12/01 01:36:18;;;;;;;4.17;2.23;;;25.40;99.90;;;;;;4979009;28;20218;-71
2021/12/01 01:38:45;;;;;;;2.57;1.90;;;25.40;99.90;;;;;;4978671;28;20271;-71
2021/12/01 01:41:14;;;;;;;9.43;2.43;;;25.50;99.90;;;;;;4978336;28;20211;-75
2021/12/01 01:43:43;;;;;;;4.17;2.33;;;25.50;99.90;;;;;;4979174;28;20183;-71
2021/12/01 01:46:11;;;;;;;5.00;2.10;;;25.50;99.90;;;;;;4979230;28;20203;-71
2021/12/01 01:51:21;;;;;;;4.70;1.80;;;26.00;99.90;;;;;;4978984;28;20533;-71
2021/12/01 01:53:51;;;;;;;2.93;1.70;;;26.60;99.90;;;;;;4979207;28;20250;-71
2021/12/01 01:56:18;;;;;;;3.70;1.83;;;26.70;99.90;;;;;;4978677;28;20176;-71
2021/12/01 01:58:47;;;;;;;4.47;1.60;;;26.50;99.90;;;;;;4982330;28;20210;-71
2021/12/01 02:01:41;;;;;;;3.50;1.60;;;26.30;99.90;;;;;;4992572;28;20175;-72
2021/12/01 02:04:09;;;;;;;3.60;1.10;;;26.20;99.90;;;;;;4989344;28;20187;-71
2021/12/01 02:06:37;;;;;;;4.13;1.13;;;26.40;99.90;;;;;;4979915;28;20203;-71
2021/12/01 02:09:05;;;;;;;2.83;1.13;;;26.50;99.90;;;;;;4979730;28;20208;-71
2021/12/01 02:11:33;;;;;;;2.23;1.10;;;26.40;99.90;;;;;;4979862;28;20553;-75
2021/12/01 02:14:00;;;;;;;3.33;1.10;;;26.50;99.90;;;;;;4978691;28;20743;-70
2021/12/01 02:16:28;;;;;;;3.30;1.30;;;26.60;99.90;;;;;;4977801;28;20630;-71
2021/12/01 02:18:55;;;;;;;4.60;1.20;;;27.00;99.90;;;;;;4977864;28;20650;-70
2021/12/01 02:21:29;;;;;;;2.90;1.13;;;27.40;99.90;;;;;;4977751;28;20194;-70
2021/12/01 02:24:08;;;;;;;2.70;0.70;;;27.30;99.90;;;;;;4977333;28;20183;-71
2021/12/01 02:26:42;;;;;;;0.87;0.53;;;27.20;99.90;;;;;;4977602;28;20215;-70
2021/12/01 02:29:13;;;;;;;2.20;0.70;;;27.20;99.90;;;;;;4977796;28;20180;-70
2021/12/01 02:31:43;;;;;;;0.97;0.80;;;27.00;99.90;;;;;;4977713;28;20546;-69
2021/12/01 02:34:14;;;;;;;1.60;0.63;;;26.90;99.90;;;;;;4977556;28;20226;-70
2021/12/01 02:36:42;;;;;;;1.77;0.60;;;27.10;99.90;;;;;;4977901;28;20179;-70
2021/12/01 02:39:13;;;;;;;2.83;0.80;;;27.50;99.90;;;;;;4978066;28;20183;-71
2021/12/01 02:41:40;;;;;;;1.87;0.80;;;27.70;99.90;;;;;;4978371;28;20163;-71
2021/12/01 02:44:11;;;;;;;2.50;0.93;;;28.40;99.90;;;;;;4977499;28;20638;-73
2021/12/01 02:46:39;;;;;;;3.30;1.60;;;28.10;99.90;;;;;;4977308;28;20192;-69
2021/12/01 02:49:07;;;;;;;4.17;1.07;;;28.00;99.90;;;;;;4977466;28;20245;-70
2021/12/01 02:51:37;;;;;;;0.97;0.73;;;28.10;99.90;;;;;;4977716;28;20214;-71
2021/12/01 02:54:05;;;;;;;2.17;0.90;;;28.10;99.90;;;;;;4978319;28;20183;-72
2021/12/01 02:56:36;;;;;;;0.57;0.37;;;27.90;99.90;;;;;;4977408;28;20194;-69
2021/12/01 02:59:06;;;;;;;2.70;0.40;;;27.40;99.90;;;;;;4977238;28;20614;-70
2021/12/01 03:01:33;;;;;;;2.43;0.50;;;27.10;99.90;;;;;;4978371;28;20178;-70
2021/12/01 03:04:01;;;;;;;1.03;0.43;;;27.10;99.90;;;;;;4977126;28;20554;-71
2021/12/01 03:06:30;;;;;;;0.67;0.30;;;27.00;99.90;;;;;;4977500;28;20211;-73
2021/12/01 03:08:58;;;;;;;1.97;0.50;;;26.70;99.90;;;;;;4976884;28;20191;-69
2021/12/01 03:11:26;;;;;;;1.67;0.50;;;26.80;99.90;;;;;;4976911;28;20230;-71
2021/12/01 03:13:55;;;;;;;1.87;0.60;;;27.00;99.90;;;;;;4976837;28;20227;-70
2021/12/01 03:16:23;;;;;;;1.03;0.50;;;26.80;99.90;;;;;;4959440;28;20194;-70
2021/12/01 03:18:51;;;;;;;0.97;0.60;;;27.00;99.90;;;;;;4975971;28;20185;-70
2021/12/01 03:21:22;;;;;;;1.00;0.50;;;26.90;99.90;;;;;;4976607;28;20691;-70
2021/12/01 03:23:50;;;;;;;0.60;0.40;;;27.00;99.90;;;;;;4976779;28;20219;-70
2021/12/01 03:26:17;;;;;;;1.10;0.63;;;27.30;99.90;;;;;;4976072;28;20203;-70
2021/12/01 03:28:45;;;;;;;2.53;0.40;;;27.90;99.90;;;;;;4976368;28;20262;-70
2021/12/01 03:31:15;;;;;;;1.23;0.63;;;28.40;99.90;;;;;;4975003;28;20187;-71
2021/12/01 03:33:43;;;;;;;1.70;0.50;;;28.10;99.90;;;;;;4976829;28;20222;-71
2021/12/01 03:36:12;;;;;;;1.07;0.50;;;27.60;99.90;;;;;;4978698;28;20195;-71
2021/12/01 03:38:40;;;;;;;0.87;0.43;;;27.30;99.90;;;;;;4975338;28;20182;-71
2021/12/01 03:41:07;;;;;;;0.77;0.60;;;27.20;99.90;;;;;;4959815;28;20242;-72
2021/12/01 03:43:35;;;;;;;1.13;0.60;;;27.50;99.90;;;;;;4976602;28;20258;-70
2021/12/01 03:46:03;;;;;;;1.27;0.60;;;28.30;99.90;;;;;;4976182;28;20540;-70
2021/12/01 03:48:31;;;;;;;1.13;0.50;;;28.70;99.90;;;;;;4976715;28;20198;-72
2021/12/01 03:51:01;;;;;;;0.97;0.57;;;28.90;99.90;;;;;;4975972;28;20242;-72
2021/12/01 03:53:28;;;;;;;1.40;0.70;;;29.10;99.90;;;;;;4976088;28;20178;-70
2021/12/01 03:55:56;;;;;;;1.30;0.40;;;29.00;99.90;;;;;;4976268;28;20202;-70
2021/12/01 03:58:23;;;;;;;1.70;0.50;;;28.40;99.90;;;;;;4976152;28;20178;-69
2021/12/01 04:00:50;;;;;;;1.13;0.40;;;27.70;99.90;;;;;;4976690;28;20178;-74
2021/12/01 04:03:18;;;;;;;1.33;0.60;;;27.70;99.90;;;;;;4975669;28;20198;-70
2021/12/01 04:05:45;;;;;;;1.73;0.60;;;27.60;99.90;;;;;;4976055;28;20626;-71
2021/12/01 04:08:13;;;;;;;2.23;0.50;;;27.60;99.90;;;;;;4975967;28;20269;-68
2021/12/01 04:10:44;;;;;;;3.00;0.80;;;27.60;99.90;;;;;;4975474;28;20181;-69
2021/12/01 04:13:12;;;;;;;0.60;0.30;;;27.60;99.90;;;;;;4975154;28;20203;-69
2021/12/01 04:15:43;;;;;;;3.47;0.77;;;27.70;99.90;;;;;;4974781;28;20187;-69
2021/12/01 04:18:11;;;;;;;1.90;0.60;;;27.60;99.90;;;;;;4976028;28;20190;-69
2021/12/01 04:20:38;;;;;;;1.07;0.63;;;27.40;99.90;;;;;;4974380;28;20187;-71
2021/12/01 04:23:06;;;;;;;1.17;0.50;;;27.40;99.90;;;;;;4975887;28;20183;-70
2021/12/01 04:25:35;;;;;;;2.73;0.60;;;27.50;99.90;;;;;;4975838;28;20209;-69
2021/12/01 04:28:04;;;;;;;2.70;0.40;;;27.60;99.90;;;;;;4975209;28;20254;-70
2021/12/01 04:30:32;;;;;;;2.20;0.23;;;27.60;99.90;;;;;;4974748;28;20199;-70
2021/12/01 04:32:59;;;;;;;0.60;0.50;;;27.60;99.90;;;;;;4976081;28;20536;-71
2021/12/01 04:35:28;;;;;;;1.30;0.60;;;28.40;99.90;;;;;;4973830;28;20216;-70
2021/12/01 04:37:56;;;;;;;0.90;0.50;;;28.60;99.90;;;;;;4973918;28;20179;-71
2021/12/01 04:40:25;;;;;;;1.77;0.33;;;28.30;99.90;;;;;;4975958;28;20175;-70
2021/12/01 04:42:54;;;;;;;0.57;0.40;;;29.00;99.90;;;;;;4974514;28;20638;-72
2021/12/01 04:45:22;;;;;;;2.30;0.60;;;29.40;99.90;;;;;;4975486;28;20519;-70
2021/12/01 04:47:52;;;;;;;2.93;0.70;;;29.10;99.90;;;;;;4976188;28;20673;-71
2021/12/01 04:50:23;;;;;;;0.63;0.50;;;29.00;99.90;;;;;;4974413;28;20191;-70
2021/12/01 04:52:51;;;;;;;1.07;0.50;;;28.40;99.90;;;;;;4974748;28;20202;-69
2021/12/01 04:55:19;;;;;;;4.43;1.63;;;27.70;99.90;;;;;;4976221;28;20184;-69
2021/12/01 04:57:48;;;;;;;1.10;0.53;;;27.80;99.90;;;;;;4976020;28;20177;-70
2021/12/01 05:00:29;;;;;;;2.23;0.90;;;27.90;99.90;;;;;;4976533;28;20183;-71
2021/12/01 05:02:56;;;;;;;1.07;0.57;;;28.50;99.90;;;;;;4973869;28;20629;-70
2021/12/01 05:05:24;;;;;;;0.60;0.60;;;28.60;99.90;;;;;;4962500;28;20179;-70
2021/12/01 05:07:52;;;;;;;0.70;0.50;;;28.90;99.90;;;;;;4952694;28;20903;-69
2021/12/01 05:10:20;;;;;;;0.27;0.27;;;29.40;99.90;;;;;;4954886;28;20212;-70
2021/12/01 05:12:47;;;;;;;1.47;0.53;;;29.60;99.90;;;;;;4953354;28;20188;-68
2021/12/01 05:15:15;;;;;;;5.50;0.60;;;29.20;99.90;;;;;;4964404;28;20230;-69
2021/12/01 05:17:42;;;;;;;0.50;0.37;;;29.00;99.90;;;;;;4973017;28;20187;-73
2021/12/01 05:20:11;;;;;;;0.67;0.50;;;28.90;99.90;;;;;;4973407;28;20183;-70
2021/12/01 05:22:39;;;;;;;0.93;0.40;;;28.80;99.90;;;;;;4957942;28;20195;-70
2021/12/01 05:25:07;;;;;;;0.60;0.43;;;28.50;99.90;;;;;;4963427;28;20183;-69
2021/12/01 05:27:35;;;;;;;1.33;0.47;;;27.80;99.90;;;;;;4963322;28;20306;-69
2021/12/01 05:30:03;;;;;;;2.10;0.70;;;27.40;99.90;;;;;;4971693;28;20532;-70
2021/12/01 05:32:34;;;;;;;1.07;0.60;;;27.10;99.90;;;;;;4971388;28;20198;-70
2021/12/01 05:35:01;;;;;;;1.10;0.70;;;27.00;99.90;;;;;;4971660;28;20302;-70
2021/12/01 05:37:29;;;;;;;1.73;0.60;;;27.10;99.90;;;;;;4970462;28;20195;-74
2021/12/01 05:39:56;;;;;;;2.60;0.67;;;27.50;99.90;;;;;;4972966;28;20171;-70
2021/12/01 05:42:24;;;;;;;2.50;0.43;;;27.70;99.90;;;;;;4975153;28;20196;-71
2021/12/01 05:44:51;;;;;;;1.10;0.60;;;27.60;99.90;;;;;;4975077;28;20179;-70
2021/12/01 05:47:24;;;;;;;0.97;0.60;;;27.30;99.90;;;;;;4976506;28;20218;-68
2021/12/01 05:49:51;;;;;;;1.17;0.43;;;27.40;99.90;;;;;;4975658;28;20270;-71
2021/12/01 05:52:19;;;;;;;0.90;0.40;;;27.00;99.90;;;;;;4976927;28;20214;-70
2021/12/01 05:54:50;;;;;;;1.73;0.60;;;27.10;99.90;;;;;;4976512;28;20191;-71
2021/12/01 05:57:17;;;;;;;0.90;0.53;;;27.50;99.90;;;;;;4966945;28;20191;-71
2021/12/01 05:59:45;;;;;;;0.70;0.40;;;27.70;99.90;;;;;;4957144;28;20244;-68
2021/12/01 06:02:12;;;;;;;0.97;0.40;;;27.40;99.90;;;;;;4963431;28;20184;-70
2021/12/01 06:04:40;;;;;;;1.93;0.80;;;27.10;99.90;;;;;;4975028;28;20176;-71
2021/12/01 06:07:07;;;;;;;0.47;0.43;;;27.10;99.90;;;;;;4967987;28;20241;-68
2021/12/01 06:09:36;;;;;;;1.13;0.50;;;26.90;99.90;;;;;;4956767;28;20179;-71
2021/12/01 06:12:04;;;;;;;0.47;0.37;;;26.80;99.90;;;;;;4956792;28;20187;-67
2021/12/01 06:14:33;;;;;;;0.73;0.40;;;26.50;99.90;;;;;;4956540;28;20278;-70
2021/12/01 06:17:00;;;;;;;0.53;0.33;;;26.30;99.90;;;;;;4967459;28;20196;-72
2021/12/01 06:19:28;;;;;;;0.47;0.27;;;26.30;99.90;;;;;;4975921;28;20179;-69
2021/12/01 06:21:55;;;;;;;0.37;0.37;;;26.50;99.90;;;;;;4967841;28;20187;-72
2021/12/01 06:24:22;;;;;;;1.63;0.60;;;26.70;99.90;;;;;;4956679;28;20190;-73
2021/12/01 06:26:50;;;;;;;1.13;0.50;;;26.70;99.90;;;;;;4957551;28;20286;-68
2021/12/01 06:29:17;;;;;;;5.83;0.67;;;27.20;99.90;;;;;;4954735;28;20287;-69
2021/12/01 06:31:44;;;;;;;0.73;0.40;;;27.50;99.90;;;;;;4955890;28;20179;-69
2021/12/01 06:34:12;;;;;;;5.60;3.33;;;27.60;99.90;;;;;;4956197;28;20179;-69
2021/12/01 06:36:43;;;;;;;6.43;4.07;;;27.90;99.90;;;;;;4957554;28;20191;-74
2021/12/01 06:39:10;;;;;;;1.20;0.80;;;28.30;99.90;;;;;;4956823;28;20211;-72
2021/12/01 06:41:38;;;;;;;1.10;0.70;;;28.10;99.90;;;;;;4957301;28;20216;-73
2021/12/01 06:44:08;;;;;;;1.23;0.60;;;27.50;99.90;;;;;;4956415;28;20207;-70
2021/12/01 06:46:35;;;;;;;0.90;0.40;;;27.40;99.90;;;;;;4974644;28;20199;-73
2021/12/01 06:49:03;;;;;;;0.80;0.50;;;27.40;99.90;;;;;;4982146;28;20679;-73
2021/12/01 06:51:30;;;;;;;2.07;0.30;;;27.30;99.90;;;;;;4969322;28;20188;-70
2021/12/01 06:53:57;;;;;;;0.43;0.43;;;27.30;99.90;;;;;;4957272;28;20176;-67
2021/12/01 06:56:25;;;;;;;0.43;0.43;;;26.90;99.90;;;;;;4969241;28;20199;-71
2021/12/01 06:58:52;;;;;;;0.50;0.40;;;26.70;99.90;;;;;;4975305;28;20175;-70
2021/12/01 07:01:19;;;;;;;0.43;0.43;;;26.90;99.90;;;;;;4975201;28;20266;-71
2021/12/01 07:03:47;;;;;;;0.30;0.30;;;27.20;99.90;;;;;;4975680;28;20179;-71
2021/12/01 07:06:14;;;;;;;0.60;0.50;;;26.90;99.90;;;;;;4964488;28;20199;-70
2021/12/01 07:08:42;;;;;;;0.33;0.30;;;26.70;99.90;;;;;;4956025;28;20188;-67
2021/12/01 07:11:09;;;;;;;0.57;0.27;;;26.50;99.90;;;;;;4974656;28;20192;-68
2021/12/01 07:13:37;;;;;;;0.30;0.30;;;26.20;99.90;;;;;;4973586;28;20235;-70
2021/12/01 07:16:04;;;;;;;1.53;0.60;;;26.10;99.90;;;;;;4965178;28;20187;-69
2021/12/01 07:18:32;;;;;;;0.30;0.30;;;25.80;99.90;;;;;;4955529;28;20209;-70
2021/12/01 07:20:59;;;;;;;2.57;0.60;;;25.70;99.90;;;;;;4955319;28;20178;-68
2021/12/01 07:23:27;;;;;;;0.33;0.33;;;25.60;99.90;;;;;;4954177;28;20195;-70
2021/12/01 07:25:54;;;;;;;0.60;0.40;;;25.50;99.90;;;;;;4963467;28;20265;-71
2021/12/01 07:28:21;;;;;;;1.43;0.30;;;25.40;99.90;;;;;;4954885;28;20693;-67
2021/12/01 07:30:49;;;;;;;0.53;0.30;;;25.40;99.90;;;;;;4954872;28;20262;-66
2021/12/01 07:33:16;;;;;;;1.10;0.43;;;25.30;99.90;;;;;;4960568;28;20190;-68
2021/12/01 07:35:45;;;;;;;1.63;0.77;;;25.20;99.90;;;;;;4967608;28;20180;-68
2021/12/01 07:38:13;;;;;;;1.23;0.37;;;25.20;99.90;;;;;;4937987;29;20253;-67
2021/12/01 07:40:40;;;;;;;0.57;0.40;;;25.20;99.90;;;;;;4967877;28;20269;-66
2021/12/01 07:43:08;;;;;;;0.97;0.50;;;25.10;99.90;;;;;;4974300;28;20186;-68
2021/12/01 07:45:43;;;;;;;1.87;0.43;;;25.00;99.90;;;;;;4969052;28;20195;-69
2021/12/01 07:48:11;;;;;;;1.43;0.40;;;25.00;99.90;;;;;;4953327;29;20233;-68
2021/12/01 07:50:39;;;;;;;0.70;0.40;;;25.00;99.90;;;;;;4954603;28;20219;-68
2021/12/01 07:53:07;;;;;;;2.87;1.77;;;24.90;99.90;;;;;;4954417;28;20194;-69
2021/12/01 07:55:34;;;;;;;1.30;0.90;;;24.80;99.90;;;;;;4959758;28;20561;-65
2021/12/01 07:58:01;;;;;;;9.00;4.70;;;24.80;99.90;;;;;;4955217;28;20191;-68
2021/12/01 08:00:29;;;;;;;1.30;0.90;;;24.70;99.90;;;;;;4963984;28;20206;-67
2021/12/01 08:02:57;;;;;;;2.30;0.80;;;24.60;99.90;;;;;;4973976;28;20209;-68
2021/12/01 08:05:25;;;;;;;1.10;0.50;;;24.40;99.90;;;;;;4956840;28;20202;-68
2021/12/01 08:07:55;;;;;;;1.70;0.50;;;24.30;99.90;;;;;;4954981;28;20241;-69
2021/12/01 08:10:22;;;;;;;2.17;0.57;;;24.20;99.90;;;;;;4954681;28;20293;-69
2021/12/01 08:12:50;;;;;;;1.17;0.50;;;24.20;99.90;;;;;;4954826;28;20222;-66
2021/12/01 08:15:18;;;;;;;1.33;0.40;;;24.10;99.90;;;;;;4954078;28;20239;-67
2021/12/01 08:17:45;;;;;;;2.30;0.63;;;24.10;99.90;;;;;;4965222;28;20187;-71
2021/12/01 08:20:13;;;;;;;0.70;0.40;;;24.10;99.90;;;;;;4973735;28;20196;-68
2021/12/01 08:22:40;;;;;;;1.00;0.63;;;24.00;99.90;;;;;;4973225;28;20264;-66
2021/12/01 08:25:08;;;;;;;1.00;0.47;;;23.90;99.90;;;;;;4971326;28;20187;-67
2021/12/01 08:27:35;;;;;;;1.43;0.53;;;23.80;99.90;;;;;;4971888;28;20238;-70
2021/12/01 08:30:05;;;;;;;2.07;0.50;;;23.70;99.90;;;;;;4973566;28;20556;-69
2021/12/01 08:32:32;;;;;;;1.23;0.70;;;23.70;99.90;;;;;;4973796;28;20537;-71
2021/12/01 08:34:59;;;;;;;0.40;0.40;;;23.70;99.90;;;;;;4958658;28;20188;-71
2021/12/01 08:37:27;;;;;;;0.97;0.60;;;23.60;99.90;;;;;;4954603;28;20187;-69
2021/12/01 08:39:54;;;;;;;1.67;0.77;;;23.50;99.90;;;;;;4954426;28;20185;-70
2021/12/01 08:42:24;;;;;;;1.00;0.50;;;23.40;99.90;;;;;;4952616;28;20289;-72
2021/12/01 08:44:52;;;;;;;1.87;0.60;;;23.30;99.90;;;;;;4967481;28;20191;-69
2021/12/01 08:47:24;;;;;;;1.03;0.50;;;23.30;99.90;;;;;;4971986;28;20226;-69
2021/12/01 08:49:56;;;;;;;2.13;0.70;;;23.20;99.90;;;;;;4973151;28;20195;-70
2021/12/01 08:52:26;;;;;;;0.77;0.60;;;23.20;99.90;;;;;;4973302;28;20234;-69
2021/12/01 08:54:53;;;;;;;4.97;0.70;;;23.10;99.90;;;;;;4971835;28;20688;-72
2021/12/01 08:57:21;;;;;;;0.90;0.50;;;23.10;99.90;;;;;;4972922;28;20179;-68
2021/12/01 08:59:50;;;;;;;1.93;0.57;;;23.00;99.90;;;;;;4972447;28;20190;-67
2021/12/01 09:02:18;;;;;;;1.10;0.73;;;22.90;99.90;;;;;;4955109;28;20185;-67
2021/12/01 09:04:50;;;;;;;1.57;0.90;;;22.80;99.90;;;;;;4969821;28;20179;-68
2021/12/01 09:07:20;;;;;;;1.53;0.40;;;22.80;99.90;;;;;;4971691;28;20588;-68
2021/12/01 09:09:48;;;;;;;2.40;0.60;;;22.70;99.90;;;;;;4953623;28;20188;-71
2021/12/01 09:12:16;;;;;;;0.70;0.40;;;22.60;99.90;;;;;;4954025;28;20192;-67
2021/12/01 09:14:44;;;;;;;1.20;0.50;;;22.50;99.90;;;;;;4953984;28;20241;-69
2021/12/01 09:17:18;;;;;;;1.50;0.50;;;22.40;99.90;;;;;;4956156;28;20238;-67
2021/12/01 09:19:46;;;;;;;1.37;0.50;;;22.30;99.90;;;;;;4957665;28;20192;-71
2021/12/01 09:22:14;;;;;;;1.27;0.50;;;22.30;99.90;;;;;;4956594;28;20185;-73
2021/12/01 09:24:41;;;;;;;1.50;0.50;;;22.30;99.90;;;;;;4975089;28;20356;-68
2021/12/01 09:27:10;;;;;;;1.70;0.70;;;22.20;99.90;;;;;;4976837;28;20273;-69
2021/12/01 09:29:38;;;;;;;1.33;0.53;;;22.10;99.90;;;;;;4975726;28;20570;-67
2021/12/01 09:32:06;;;;;;;1.30;0.50;;;22.10;99.90;;;;;;4976639;28;20199;-70
2021/12/01 09:34:33;;;;;;;0.70;0.60;;;22.00;99.90;;;;;;4960339;28;20184;-70
2021/12/01 09:37:00;;;;;;;0.43;0.40;;;22.00;99.90;;;;;;4959309;28;20185;-70
2021/12/01 09:39:28;;;;;;;1.07;0.40;;;22.00;99.90;;;;;;4965910;28;20645;-71
2021/12/01 09:41:56;;;;;;;1.40;0.43;;;21.90;99.90;;;;;;4976404;28;20256;-70
2021/12/01 09:44:23;;;;;;;0.77;0.37;;;21.80;99.90;;;;;;4961340;28;20198;-67
2021/12/01 09:46:51;;;;;;;1.63;0.57;;;21.80;99.90;;;;;;4956739;28;20219;-67
2021/12/01 09:49:18;;;;;;;0.77;0.50;;;21.70;99.90;;;;;;4961661;28;20603;-69
2021/12/01 09:51:46;;;;;;;2.00;0.73;;;21.70;99.90;;;;;;4975020;28;20271;-70
2021/12/01 09:54:13;;;;;;;2.20;0.70;;;21.60;99.90;;;;;;4974822;28;20191;-67
2021/12/01 09:56:41;;;;;;;1.27;0.60;;;21.60;99.90;;;;;;4956748;28;20190;-68
2021/12/01 09:59:10;;;;;;;0.60;0.50;;;21.60;99.90;;;;;;4972057;28;20290;-68
2021/12/01 10:01:37;;;;;;;0.87;0.70;;;21.50;99.90;;;;;;4976628;28;20183;-69
2021/12/01 10:04:05;;;;;;;8.77;4.93;;;21.50;99.90;;;;;;4960097;28;20199;-69
2021/12/01 10:06:33;;;;;;;1.97;0.80;;;21.50;99.90;;;;;;4956596;28;20235;-70
2021/12/01 10:09:04;;;;;;;0.60;0.60;;;21.50;99.90;;;;;;4963204;28;20179;-70
2021/12/01 10:11:37;;;;;;;2.40;0.50;;;21.40;99.90;;;;;;4966450;28;20180;-71
2021/12/01 10:14:15;;;;;;;4.57;0.80;;;21.40;99.90;;;;;;4970690;28;20611;-70
2021/12/01 10:16:43;;;;;;;0.83;0.60;;;21.30;99.90;;;;;;4967711;28;20547;-73
2021/12/01 10:19:14;;;;;;;2.00;0.67;;;21.30;99.90;;;;;;4965646;28;20275;-69
2021/12/01 10:21:45;;;;;;;1.63;0.70;;;21.30;99.90;;;;;;4966457;28;20194;-69
2021/12/01 10:24:19;;;;;;;0.53;0.53;;;21.20;99.90;;;;;;4968661;28;20175;-68
2021/12/01 10:26:56;;;;;;;1.13;0.73;;;21.20;99.90;;;;;;4975602;28;20716;-72
2021/12/01 10:29:33;;;;;;;1.63;0.63;;;21.10;99.90;;;;;;4974575;28;20179;-70
2021/12/01 10:32:13;;;;;;;1.33;0.60;;;21.10;99.90;;;;;;4975625;28;20242;-67
2021/12/01 10:35:02;;;;;;;1.53;0.87;;;21.10;99.90;;;;;;4975484;28;20184;-68
2021/12/01 10:37:33;;;;;;;1.23;0.73;;;21.00;99.90;;;;;;4975030;28;20542;-69
2021/12/01 10:40:26;;;;;;;2.37;0.70;;;21.00;99.90;;;;;;4975241;28;20589;-71
2021/12/01 10:42:59;;;;;;;3.07;1.10;;;21.00;99.90;;;;;;4970662;28;20234;-71
2021/12/01 10:45:38;;;;;;;1.57;0.73;;;21.00;99.90;;;;;;4975391;28;20268;-68
2021/12/01 10:48:08;;;;;;;1.23;0.70;;;21.00;99.90;;;;;;4975086;28;20227;-68
2021/12/01 10:50:39;;;;;;;2.40;0.50;;;20.90;99.90;;;;;;4975461;28;20254;-71
2021/12/01 10:53:17;;;;;;;3.43;0.70;;;20.90;99.90;;;;;;4975318;28;20553;-69
2021/12/01 10:55:46;;;;;;;1.03;0.67;;;20.90;99.90;;;;;;4975141;28;20172;-68
2021/12/01 10:58:15;;;;;;;3.00;0.90;;;20.80;99.90;;;;;;4965569;28;20901;-67
2021/12/01 11:00:45;;;;;;;2.30;0.70;;;20.80;99.90;;;;;;4966006;28;20187;-68
2021/12/01 11:03:15;;;;;;;2.93;0.90;;;20.80;99.90;;;;;;4962392;28;20183;-70
2021/12/01 11:05:43;;;;;;;2.43;1.03;;;20.70;99.90;;;;;;4965889;28;20325;-71
2021/12/01 11:08:17;;;;;;;3.50;0.83;;;20.70;99.90;;;;;;4970644;28;20277;-69
2021/12/01 11:10:46;;;;;;;0.93;0.63;;;20.70;99.90;;;;;;4967088;28;20182;-70
2021/12/01 11:13:18;;;;;;;2.10;1.47;;;20.70;99.90;;;;;;4963420;28;20598;-67
2021/12/01 11:15:57;;;;;;;5.80;0.83;;;20.70;99.90;;;;;;4948991;28;20204;-68
2021/12/01 11:18:27;;;;;;;3.10;0.80;;;20.60;99.90;;;;;;4965557;28;20266;-72
2021/12/01 11:21:00;;;;;;;1.93;0.90;;;20.50;99.90;;;;;;4967929;28;20645;-68
2021/12/01 11:23:34;;;;;;;2.10;1.13;;;20.40;99.90;;;;;;4966414;28;20191;-68
2021/12/01 11:26:06;;;;;;;1.00;0.80;;;20.30;99.90;;;;;;4973581;28;20185;-65
2021/12/01 11:29:08;;;;;;;1.17;0.90;;;20.20;99.90;;;;;;4971407;28;20750;-69
2021/12/01 11:31:46;;;;;;;1.53;0.83;;;20.10;99.90;;;;;;4964641;28;20569;-69
2021/12/01 11:34:17;;;;;;;1.33;0.90;;;20.20;99.90;;;;;;4969119;28;20183;-67
2021/12/01 11:36:47;;;;;;;3.00;0.80;;;20.20;99.90;;;;;;4963609;28;20183;-68
2021/12/01 11:39:22;;;;;;;2.63;0.57;;;20.20;99.90;;;;;;4967929;28;20183;-67
2021/12/01 11:41:54;;;;;;;2.40;0.63;;;20.20;99.90;;;;;;4971252;28;20249;-68
2021/12/01 11:44:25;;;;;;;0.93;0.70;;;20.20;99.90;;;;;;4970842;28;20191;-68
2021/12/01 11:46:53;;;;;;;1.97;0.90;;;20.10;99.90;;;;;;4964635;28;20579;-69
2021/12/01 11:49:23;;;;;;;1.10;0.97;;;20.10;99.90;;;;;;4965734;28;20210;-67
2021/12/01 11:52:04;;;;;;;1.93;0.87;;;20.10;99.90;;;;;;4965696;28;20196;-66
2021/12/01 11:54:32;;;;;;;1.40;0.70;;;20.10;99.90;;;;;;4964917;28;20198;-69
2021/12/01 11:57:00;;;;;;;2.00;0.80;;;20.00;99.90;;;;;;4974919;28;20688;-69
2021/12/01 11:59:36;;;;;;;1.37;0.80;;;20.00;99.90;;;;;;4970415;28;20612;-68
2021/12/01 12:02:23;;;;;;;2.97;1.00;;;20.00;99.90;;;;;;4956002;28;20282;-73
2021/12/01 12:04:57;;;;;;;2.07;0.70;;;20.00;99.90;;;;;;4955872;28;20221;-70
2021/12/01 12:07:36;;;;;;;1.33;0.77;;;19.90;99.90;;;;;;4955697;28;20303;-66
2021/12/01 12:10:21;;;;;;;0.70;0.60;;;20.00;99.90;;;;;;4967321;28;20191;-69
2021/12/01 12:13:07;;;;;;;2.93;0.87;;;20.00;99.90;;;;;;4966119;28;20179;-67
2021/12/01 12:15:47;;;;;;;1.87;0.90;;;19.90;99.90;;;;;;4973730;28;20653;-70
2021/12/01 12:18:34;;;;;;;2.87;0.70;;;19.80;99.90;;;;;;4968336;28;20252;-67
2021/12/01 12:21:20;;;;;;;1.27;0.90;;;19.80;99.90;;;;;;4968514;28;20624;-67
2021/12/01 12:23:49;;;;;;;5.43;1.20;;;19.70;99.90;;;;;;4965215;28;20537;-66
2021/12/01 12:26:41;;;;;;;3.40;0.87;;;19.60;99.90;;;;;;4955978;28;20192;-67
2021/12/01 12:29:18;;;;;;;3.33;0.90;;;19.50;99.90;;;;;;4955162;28;20195;-67
2021/12/01 12:31:48;;;;;;;3.37;1.10;;;19.40;99.90;;;;;;4974518;28;20220;-67
2021/12/01 12:34:18;;;;;;;1.33;0.70;;;19.30;99.90;;;;;;4973747;28;20197;-68
2021/12/01 12:36:50;;;;;;;1.80;0.83;;;19.20;99.90;;;;;;4958910;28;20599;-68
2021/12/01 12:39:24;;;;;;;2.23;0.97;;;19.10;99.90;;;;;;4955106;28;20187;-68
2021/12/01 12:42:00;;;;;;;1.53;1.00;;;19.10;99.90;;;;;;4954009;28;20195;-68
2021/12/01 12:44:39;;;;;;;1.73;0.90;;;19.00;99.90;;;;;;4955553;28;20210;-68
2021/12/01 12:47:12;;;;;;;0.67;0.67;;;19.00;99.90;;;;;;4955009;28;20358;-67
2021/12/01 12:49:41;;;;;;;1.33;1.07;;;19.00;99.90;;;;;;4955228;28;20187;-70
2021/12/01 12:52:27;;;;;;;1.83;1.00;;;18.90;99.90;;;;;;4960237;28;20195;-68
2021/12/01 12:54:57;;;;;;;1.37;0.97;;;19.00;99.90;;;;;;4965186;28;20558;-67
2021/12/01 12:57:50;;;;;;;3.40;0.97;;;18.90;99.90;;;;;;4978613;28;20525;-68
2021/12/01 13:00:17;;;;;;;2.63;0.90;;;18.90;99.90;;;;;;4960637;28;20202;-69
2021/12/01 13:02:45;;;;;;;3.30;0.93;;;18.80;99.90;;;;;;4958872;28;20643;-66
2021/12/01 13:05:12;;;;;;;3.83;0.97;;;18.80;99.90;;;;;;4958925;28;20172;-67
2021/12/01 13:07:48;;;;;;;1.57;0.77;;;18.80;99.90;;;;;;4958695;28;20273;-68